createdAt,value
2023-02-15T00:01:10.613Z,49.58529
2023-02-15T00:06:12.265Z,51.29585
2023-02-15T00:11:13.995Z,50.80708
2023-02-15T00:16:15.661Z,49.76374
2023-02-15T00:21:17.468Z,49.50235
2023-02-15T00:26:19.167Z,51.39218
2023-02-15T00:31:20.800Z,50.66304
2023-02-15T00:36:22.806Z,52.71983
2023-02-15T00:41:24.612Z,53.04756
2023-02-15T00:46:26.828Z,53.83555
2023-02-15T00:51:28.471Z,51.28137
2023-02-15T00:56:30.067Z,53.61909
2023-02-15T01:01:31.847Z,52.24573
2023-02-15T01:06:33.471Z,54.38895
2023-02-15T01:11:35.141Z,54.47806
2023-02-15T01:16:36.825Z,53.65239
2023-02-15T01:21:38.428Z,55.37316
2023-02-15T01:26:40.076Z,53.71417
2023-02-15T01:31:42.001Z,55.39622
2023-02-15T01:36:43.708Z,53.65334
2023-02-15T01:41:45.370Z,57.30624
2023-02-15T01:46:47.107Z,57.36232
2023-02-15T01:51:48.720Z,55.98703
2023-02-15T01:56:50.338Z,54.06246
2023-02-15T02:01:52.197Z,55.1455
2023-02-15T02:06:53.858Z,57.34015
2023-02-15T02:11:55.536Z,54.16171
2023-02-15T02:16:57.295Z,54.56787
2023-02-15T02:21:58.925Z,55.91442
2023-02-15T02:27:00.514Z,58.75835
2023-02-15T02:32:03.493Z,57.3243
2023-02-15T02:37:05.188Z,59.17008
2023-02-15T02:42:06.789Z,58.22847
2023-02-15T02:47:08.702Z,55.66982
2023-02-15T02:52:10.292Z,57.39889
2023-02-15T02:57:11.977Z,60.06397
2023-02-15T03:02:13.677Z,59.6709
2023-02-15T03:07:15.294Z,58.80434
2023-02-15T03:12:16.966Z,57.00263
2023-02-15T03:17:18.773Z,60.56152
2023-02-15T03:22:20.392Z,58.28958
2023-02-15T03:27:22.006Z,58.62451
2023-02-15T03:32:23.913Z,59.05012
2023-02-15T03:37:25.526Z,58.75627
2023-02-15T03:42:27.199Z,60.33045
2023-02-15T03:47:29.068Z,58.01132
2023-02-15T03:52:30.675Z,60.20648
2023-02-15T03:57:32.368Z,59.18461
2023-02-15T04:02:34.214Z,57.62854
2023-02-15T04:07:35.976Z,58.71573
2023-02-15T04:12:37.615Z,58.97645
2023-02-15T04:17:39.360Z,63.00964
2023-02-15T04:22:41.034Z,61.28445
2023-02-15T04:27:42.655Z,59.64379
2023-02-15T04:32:44.360Z,59.68361
2023-02-15T04:37:46.011Z,63.24023
2023-02-15T04:42:47.620Z,59.4212
2023-02-15T04:47:49.318Z,60.65736
2023-02-15T04:52:50.993Z,58.5258
2023-02-15T04:57:52.706Z,60.68486
2023-02-15T05:02:54.463Z,60.23426
2023-02-15T05:07:56.609Z,64.0882
2023-02-15T05:12:58.234Z,61.30269
2023-02-15T05:17:59.901Z,61.38355
2023-02-15T05:23:03.236Z,59.78964
2023-02-15T05:28:05.394Z,63.66658
2023-02-15T05:33:07.164Z,58.47592
2023-02-15T05:38:08.875Z,62.7289
2023-02-15T05:43:10.555Z,60.29222
2023-02-15T05:48:12.202Z,59.9009
2023-02-15T05:53:13.879Z,60.52067
2023-02-15T05:58:15.632Z,62.1214
2023-02-15T06:03:17.358Z,64.57194
2023-02-15T06:08:19.088Z,62.84816
2023-02-15T06:13:20.800Z,62.68324
2023-02-15T06:18:22.497Z,63.55522
2023-02-15T06:23:24.104Z,62.31857
2023-02-15T06:28:25.846Z,63.11199
2023-02-15T06:33:27.548Z,64.00697
2023-02-15T06:38:29.196Z,63.49549
2023-02-15T06:43:31.419Z,64.27738
2023-02-15T06:48:33.231Z,64.5489
2023-02-15T06:53:34.835Z,62.49897
2023-02-15T06:58:36.439Z,64.78706
2023-02-15T07:03:38.461Z,62.57559
2023-02-15T07:08:40.171Z,62.44701
2023-02-15T07:13:41.832Z,61.8099
2023-02-15T07:18:43.595Z,61.60304
2023-02-15T07:23:45.319Z,65.16887
2023-02-15T07:28:47.114Z,65.66805
2023-02-15T07:33:49.340Z,66.02772
2023-02-15T07:38:51.277Z,64.53575
2023-02-15T07:43:52.968Z,66.46243
2023-02-15T07:48:55.260Z,66.5191
2023-02-15T07:53:56.925Z,63.37666
2023-02-15T07:58:58.581Z,63.32058
2023-02-15T08:04:00.475Z,61.9729
2023-02-15T08:09:02.446Z,61.95235
2023-02-15T08:14:04.328Z,63.96183
2023-02-15T08:19:05.978Z,65.94703
2023-02-15T08:24:07.566Z,63.01935
2023-02-15T08:29:10.095Z,61.81244
2023-02-15T08:34:11.772Z,62.17127
2023-02-15T08:39:13.451Z,63.27446
2023-02-15T08:44:15.129Z,63.42549
2023-02-15T08:49:16.807Z,63.81842
2023-02-15T08:54:18.635Z,67.9324
2023-02-15T08:59:20.317Z,67.04675
2023-02-15T09:04:21.978Z,66.41358
2023-02-15T09:09:23.862Z,66.52637
2023-02-15T09:14:25.492Z,64.20494
2023-02-15T09:19:27.231Z,62.55209
2023-02-15T09:24:28.830Z,64.4538
2023-02-15T09:29:30.535Z,63.97303
2023-02-15T09:34:34.125Z,64.96677
2023-02-15T09:39:36.716Z,65.00647
2023-02-15T09:44:38.430Z,66.41867
2023-02-15T09:49:40.059Z,72.2165
2023-02-15T09:54:41.651Z,69.45204
2023-02-15T09:59:43.387Z,67.68602
2023-02-15T10:04:45.370Z,66.5304
2023-02-15T10:09:47.073Z,65.35223
2023-02-15T10:14:48.832Z,64.54293
2023-02-15T10:19:50.462Z,63.74217
2023-02-15T10:24:52.112Z,64.52027
2023-02-15T10:29:53.723Z,66.80048
2023-02-15T10:34:55.299Z,68.83914
2023-02-15T10:39:56.975Z,68.05368
2023-02-15T10:44:58.693Z,64.84888
2023-02-15T10:50:00.298Z,64.19628
2023-02-15T10:55:01.920Z,66.43277
2023-02-15T11:00:03.583Z,64.58651
2023-02-15T11:05:05.266Z,65.88598
2023-02-15T11:10:06.978Z,65.20411
2023-02-15T11:15:08.621Z,64.62438
2023-02-15T11:20:10.177Z,65.43112
2023-02-15T11:25:11.804Z,66.77228
2023-02-15T11:30:13.543Z,66.70961
2023-02-15T11:35:15.235Z,66.779
2023-02-15T11:40:16.844Z,66.17724
2023-02-15T11:45:18.432Z,67.06401
2023-02-15T11:50:20.231Z,65.96095
2023-02-15T11:55:21.847Z,66.97735
2023-02-15T12:00:23.440Z,69.92961
2023-02-15T12:05:25.076Z,66.1669
2023-02-15T12:10:26.724Z,66.37611
2023-02-15T12:15:28.373Z,68.64786
2023-02-15T12:20:29.991Z,67.53282
2023-02-15T12:25:31.607Z,67.62512
2023-02-15T12:30:33.378Z,68.89817
2023-02-15T12:35:35.092Z,69.21961
2023-02-15T12:40:36.714Z,70.87303
2023-02-15T12:45:38.361Z,69.49071
2023-02-15T12:50:40.181Z,67.62339
2023-02-15T12:55:45.397Z,68.61285
2023-02-15T13:00:47.234Z,67.26478
2023-02-15T13:05:49.003Z,69.63881
2023-02-15T13:10:50.609Z,70.80007
2023-02-15T13:15:52.289Z,68.3442
2023-02-15T13:20:54.095Z,68.2021
2023-02-15T13:25:55.666Z,69.0795
2023-02-15T13:30:57.408Z,68.03259
2023-02-15T13:35:59.042Z,70.52202
2023-02-15T13:41:01.091Z,71.41017
2023-02-15T13:46:03.503Z,68.7261
2023-02-15T13:51:05.332Z,69.79461
2023-02-15T13:56:07.141Z,70.55291
2023-02-15T14:01:08.764Z,69.84355
2023-02-15T14:06:10.440Z,72.65542
2023-02-15T14:11:12.330Z,70.50404
2023-02-15T14:16:14.063Z,69.30894
2023-02-15T14:21:15.703Z,69.00457
2023-02-15T14:26:17.536Z,67.92343
2023-02-15T14:31:19.300Z,67.53404
2023-02-15T14:36:20.947Z,68.02367
2023-02-15T14:41:22.562Z,67.72507
2023-02-15T14:46:24.398Z,69.21676
2023-02-15T14:51:26.093Z,68.62772
2023-02-15T14:56:27.774Z,68.98053
2023-02-15T15:01:29.507Z,69.59857
2023-02-15T15:06:31.316Z,68.23199
2023-02-15T15:11:43.001Z,67.50673
2023-02-15T15:16:45.459Z,67.96315
2023-02-15T15:21:47.068Z,67.92932
2023-02-15T15:26:50.552Z,70.10494
2023-02-15T15:31:53.243Z,69.73354
2023-02-15T15:36:55.034Z,72.04673
2023-02-15T15:41:56.688Z,70.12861
2023-02-15T15:46:58.318Z,69.94795
2023-02-15T15:51:59.919Z,70.16381
2023-02-15T15:57:04.381Z,67.92744
2023-02-15T16:02:06.048Z,64.64315
2023-02-15T16:07:07.714Z,66.91526
2023-02-15T16:12:09.338Z,62.9165
2023-02-15T16:17:11.142Z,63.75717
2023-02-15T16:22:12.929Z,63.98246
2023-02-15T16:27:14.927Z,66.61316
2023-02-15T16:32:16.639Z,64.46596
2023-02-15T16:37:18.258Z,66.74179
2023-02-15T16:42:19.949Z,65.01923
2023-02-15T16:47:21.582Z,59.98154
2023-02-15T16:52:23.227Z,57.53439
2023-02-15T16:57:24.926Z,56.51924
2023-02-15T17:02:49.452Z,55.06234
2023-02-15T17:07:55.239Z,58.57953
2023-02-15T17:12:57.182Z,58.44575
2023-02-15T17:17:58.796Z,57.42093
2023-02-15T17:23:00.470Z,58.83986
2023-02-15T17:28:02.105Z,57.38921
2023-02-15T17:33:03.901Z,57.28503
2023-02-15T17:38:05.591Z,57.74583
2023-02-15T17:43:07.159Z,55.0153
2023-02-15T17:48:08.775Z,52.32619
2023-02-15T17:53:10.495Z,51.09861
2023-02-15T17:58:12.351Z,52.86981
2023-02-15T18:03:13.972Z,49.4076
2023-02-15T18:08:15.572Z,49.74912
2023-02-15T18:13:17.209Z,50.88031
2023-02-15T18:18:19.078Z,50.58357
2023-02-15T18:23:20.863Z,48.81782
2023-02-15T18:28:22.466Z,50.5329
2023-02-15T18:33:24.134Z,50.62281
2023-02-15T18:38:25.783Z,50.2197
2023-02-15T18:43:27.426Z,48.76905
2023-02-15T18:48:29.058Z,48.53163
2023-02-15T18:53:30.645Z,48.2983
2023-02-15T18:58:32.317Z,48.27366
2023-02-15T19:03:33.972Z,47.75112
2023-02-15T19:08:35.628Z,48.38881
2023-02-15T19:13:37.295Z,47.84198
2023-02-15T19:18:38.946Z,46.85239
2023-02-15T19:23:40.563Z,49.21764
2023-02-15T19:28:42.175Z,46.78386
2023-02-15T19:33:43.800Z,46.62236
2023-02-15T19:38:45.670Z,44.93148
2023-02-15T19:43:47.357Z,46.39561
2023-02-15T19:48:50.903Z,43.92113
2023-02-15T19:53:52.705Z,42.93179
2023-02-15T19:58:54.339Z,41.86806
2023-02-15T20:03:55.982Z,41.62722
2023-02-15T20:08:57.863Z,41.0125
2023-02-15T20:13:59.604Z,40.5134
2023-02-15T20:19:01.316Z,39.86884
2023-02-15T20:24:03.361Z,39.75597
2023-02-15T20:29:05.202Z,41.04967
2023-02-15T20:34:06.890Z,39.52511
2023-02-15T20:39:08.598Z,36.75389
2023-02-15T20:44:10.210Z,39.03566
2023-02-15T20:49:11.910Z,35.92794
2023-02-15T20:54:13.513Z,37.26737
2023-02-15T20:59:15.112Z,37.09935
2023-02-15T21:04:16.721Z,36.28668
2023-02-15T21:09:18.345Z,34.3159
2023-02-15T21:14:20.053Z,36.88737
2023-02-15T21:19:21.733Z,37.44221
2023-02-15T21:24:23.444Z,36.51346
2023-02-15T21:29:25.125Z,37.92317
2023-02-15T21:34:26.739Z,37.85055
2023-02-15T21:39:28.641Z,35.43823
2023-02-15T21:44:30.420Z,37.17918
2023-02-15T21:49:32.066Z,35.37165
2023-02-15T21:54:33.752Z,35.56576
2023-02-15T21:59:35.379Z,34.36901
2023-02-15T22:04:36.995Z,36.31089
2023-02-15T22:09:38.759Z,33.3648
2023-02-15T22:14:40.377Z,36.77
2023-02-15T22:19:41.970Z,34.61283
2023-02-15T22:24:43.613Z,34.54076
2023-02-15T22:29:45.216Z,35.62668
2023-02-15T22:34:46.960Z,35.09934
2023-02-15T22:39:48.609Z,31.54697
2023-02-15T22:44:50.476Z,34.80588
2023-02-15T22:49:52.085Z,35.33776
2023-02-15T22:54:54.017Z,35.52774
2023-02-15T22:59:55.605Z,34.84111
2023-02-15T23:04:57.520Z,34.16647
2023-02-15T23:09:59.519Z,36.88025
2023-02-15T23:15:01.254Z,34.45769
2023-02-15T23:20:02.872Z,34.40659
2023-02-15T23:25:04.544Z,36.74289
2023-02-15T23:30:06.236Z,34.32285
2023-02-15T23:35:09.582Z,39.4839
2023-02-15T23:40:11.348Z,38.60404
2023-02-15T23:45:13.123Z,40.39646
2023-02-15T23:50:14.806Z,41.54803
2023-02-15T23:55:16.462Z,39.59758
